sensor_id;sensor_type;location;lat;lon;timestamp;P1;durP1;ratioP1;P2;durP2;ratioP2
5961;SDS011;3007;50.770;0.250;2024-01-06T00:00:51;7.83;;;5.80;;
5961;SDS011;3007;50.770;0.250;2024-01-06T00:03:18;6.97;;;5.73;;
5961;SDS011;3007;50.770;0.250;2024-01-06T00:05:45;8.17;;;5.60;;
5961;SDS011;3007;50.770;0.250;2024-01-06T00:08:12;7.13;;;5.97;;
5961;SDS011;3007;50.770;0.250;2024-01-06T00:10:40;8.47;;;6.63;;
5961;SDS011;3007;50.770;0.250;2024-01-06T00:13:06;9.57;;;6.43;;
5961;SDS011;3007;50.770;0.250;2024-01-06T00:15:33;8.63;;;6.40;;
5961;SDS011;3007;50.770;0.250;2024-01-06T00:18:00;7.47;;;5.47;;
5961;SDS011;3007;50.770;0.250;2024-01-06T00:20:27;8.70;;;5.53;;
5961;SDS011;3007;50.770;0.250;2024-01-06T00:22:54;8.33;;;5.13;;
5961;SDS011;3007;50.770;0.250;2024-01-06T00:25:21;6.17;;;5.00;;
5961;SDS011;3007;50.770;0.250;2024-01-06T00:27:49;6.73;;;4.90;;
5961;SDS011;3007;50.770;0.250;2024-01-06T00:30:16;6.17;;;4.80;;
5961;SDS011;3007;50.770;0.250;2024-01-06T00:32:43;7.50;;;5.57;;
5961;SDS011;3007;50.770;0.250;2024-01-06T00:35:10;13.13;;;7.00;;
5961;SDS011;3007;50.770;0.250;2024-01-06T00:37:37;11.20;;;6.87;;
5961;SDS011;3007;50.770;0.250;2024-01-06T00:40:04;9.57;;;6.63;;
5961;SDS011;3007;50.770;0.250;2024-01-06T00:42:31;8.47;;;6.53;;
5961;SDS011;3007;50.770;0.250;2024-01-06T00:45:00;11.27;;;7.07;;
5961;SDS011;3007;50.770;0.250;2024-01-06T00:47:26;10.93;;;7.47;;
5961;SDS011;3007;50.770;0.250;2024-01-06T00:49:53;10.87;;;7.23;;
5961;SDS011;3007;50.770;0.250;2024-01-06T00:52:20;10.80;;;7.83;;
5961;SDS011;3007;50.770;0.250;2024-01-06T00:54:47;12.27;;;8.03;;
5961;SDS011;3007;50.770;0.250;2024-01-06T00:57:14;11.20;;;8.07;;
5961;SDS011;3007;50.770;0.250;2024-01-06T00:59:40;8.90;;;7.43;;
5961;SDS011;3007;50.770;0.250;2024-01-06T01:02:09;7.07;;;5.30;;
5961;SDS011;3007;50.770;0.250;2024-01-06T01:04:35;9.07;;;6.60;;
5961;SDS011;3007;50.770;0.250;2024-01-06T01:07:02;8.67;;;6.47;;
5961;SDS011;3007;50.770;0.250;2024-01-06T01:09:29;7.87;;;5.70;;
5961;SDS011;3007;50.770;0.250;2024-01-06T01:11:56;9.63;;;5.67;;
5961;SDS011;3007;50.770;0.250;2024-01-06T01:14:23;7.97;;;4.67;;
5961;SDS011;3007;50.770;0.250;2024-01-06T01:16:50;8.87;;;3.87;;
5961;SDS011;3007;50.770;0.250;2024-01-06T01:19:19;5.10;;;4.10;;
5961;SDS011;3007;50.770;0.250;2024-01-06T01:21:46;4.80;;;3.10;;
5961;SDS011;3007;50.770;0.250;2024-01-06T01:24:13;6.00;;;3.20;;
5961;SDS011;3007;50.770;0.250;2024-01-06T01:26:40;4.00;;;2.83;;
5961;SDS011;3007;50.770;0.250;2024-01-06T01:29:08;5.10;;;2.77;;
5961;SDS011;3007;50.770;0.250;2024-01-06T01:31:35;6.00;;;2.97;;
5961;SDS011;3007;50.770;0.250;2024-01-06T01:34:02;3.93;;;2.87;;
5961;SDS011;3007;50.770;0.250;2024-01-06T01:36:30;7.20;;;3.20;;
5961;SDS011;3007;50.770;0.250;2024-01-06T01:38:57;3.60;;;2.83;;
5961;SDS011;3007;50.770;0.250;2024-01-06T01:41:24;4.17;;;2.90;;
5961;SDS011;3007;50.770;0.250;2024-01-06T01:43:51;2.83;;;2.40;;
5961;SDS011;3007;50.770;0.250;2024-01-06T01:46:23;3.43;;;2.60;;
5961;SDS011;3007;50.770;0.250;2024-01-06T01:48:51;5.03;;;2.40;;
5961;SDS011;3007;50.770;0.250;2024-01-06T01:51:20;4.97;;;2.40;;
5961;SDS011;3007;50.770;0.250;2024-01-06T01:53:49;4.10;;;2.50;;
5961;SDS011;3007;50.770;0.250;2024-01-06T01:56:16;6.30;;;2.47;;
5961;SDS011;3007;50.770;0.250;2024-01-06T01:58:43;6.70;;;3.03;;
5961;SDS011;3007;50.770;0.250;2024-01-06T02:01:10;4.87;;;2.37;;
5961;SDS011;3007;50.770;0.250;2024-01-06T02:03:37;5.77;;;2.80;;
5961;SDS011;3007;50.770;0.250;2024-01-06T02:06:07;3.00;;;2.10;;
5961;SDS011;3007;50.770;0.250;2024-01-06T02:08:34;5.07;;;2.30;;
5961;SDS011;3007;50.770;0.250;2024-01-06T02:11:02;4.53;;;2.10;;
5961;SDS011;3007;50.770;0.250;2024-01-06T02:13:32;3.73;;;2.10;;
5961;SDS011;3007;50.770;0.250;2024-01-06T02:16:00;2.50;;;1.87;;
5961;SDS011;3007;50.770;0.250;2024-01-06T02:18:28;2.60;;;2.17;;
5961;SDS011;3007;50.770;0.250;2024-01-06T02:20:55;4.63;;;2.73;;
5961;SDS011;3007;50.770;0.250;2024-01-06T02:23:26;6.60;;;2.57;;
5961;SDS011;3007;50.770;0.250;2024-01-06T02:25:53;4.23;;;2.10;;
5961;SDS011;3007;50.770;0.250;2024-01-06T02:28:20;4.43;;;2.40;;
5961;SDS011;3007;50.770;0.250;2024-01-06T02:30:47;3.73;;;2.33;;
5961;SDS011;3007;50.770;0.250;2024-01-06T02:33:14;3.40;;;1.70;;
5961;SDS011;3007;50.770;0.250;2024-01-06T02:35:41;6.47;;;3.50;;
5961;SDS011;3007;50.770;0.250;2024-01-06T02:38:08;7.00;;;3.93;;
5961;SDS011;3007;50.770;0.250;2024-01-06T02:40:36;6.97;;;4.00;;
5961;SDS011;3007;50.770;0.250;2024-01-06T02:43:03;5.00;;;3.63;;
5961;SDS011;3007;50.770;0.250;2024-01-06T02:45:30;6.23;;;4.67;;
5961;SDS011;3007;50.770;0.250;2024-01-06T02:47:57;8.27;;;5.13;;
5961;SDS011;3007;50.770;0.250;2024-01-06T02:50:24;8.47;;;5.07;;
5961;SDS011;3007;50.770;0.250;2024-01-06T02:52:51;8.07;;;5.73;;
5961;SDS011;3007;50.770;0.250;2024-01-06T02:55:17;9.33;;;6.50;;
5961;SDS011;3007;50.770;0.250;2024-01-06T02:57:45;6.93;;;5.57;;
5961;SDS011;3007;50.770;0.250;2024-01-06T03:00:13;9.60;;;6.73;;
5961;SDS011;3007;50.770;0.250;2024-01-06T03:02:40;13.07;;;7.97;;
5961;SDS011;3007;50.770;0.250;2024-01-06T03:05:08;12.83;;;8.17;;
5961;SDS011;3007;50.770;0.250;2024-01-06T03:07:35;14.53;;;9.10;;
5961;SDS011;3007;50.770;0.250;2024-01-06T03:10:02;11.43;;;8.27;;
5961;SDS011;3007;50.770;0.250;2024-01-06T03:12:29;13.63;;;8.77;;
5961;SDS011;3007;50.770;0.250;2024-01-06T03:14:58;13.57;;;9.70;;
5961;SDS011;3007;50.770;0.250;2024-01-06T03:17:25;12.93;;;8.40;;
5961;SDS011;3007;50.770;0.250;2024-01-06T03:19:53;12.93;;;8.10;;
5961;SDS011;3007;50.770;0.250;2024-01-06T03:22:20;11.80;;;6.93;;
5961;SDS011;3007;50.770;0.250;2024-01-06T03:24:47;12.23;;;8.10;;
5961;SDS011;3007;50.770;0.250;2024-01-06T03:27:14;11.57;;;7.53;;
5961;SDS011;3007;50.770;0.250;2024-01-06T03:29:40;10.83;;;7.07;;
5961;SDS011;3007;50.770;0.250;2024-01-06T03:32:09;13.63;;;7.90;;
5961;SDS011;3007;50.770;0.250;2024-01-06T03:34:35;9.77;;;5.63;;
5961;SDS011;3007;50.770;0.250;2024-01-06T03:37:02;10.70;;;5.43;;
5961;SDS011;3007;50.770;0.250;2024-01-06T03:39:29;5.73;;;4.50;;
5961;SDS011;3007;50.770;0.250;2024-01-06T03:41:56;6.30;;;4.40;;
5961;SDS011;3007;50.770;0.250;2024-01-06T03:44:23;5.83;;;4.00;;
5961;SDS011;3007;50.770;0.250;2024-01-06T03:46:55;7.47;;;3.50;;
5961;SDS011;3007;50.770;0.250;2024-01-06T03:49:23;6.80;;;3.53;;
5961;SDS011;3007;50.770;0.250;2024-01-06T03:51:50;6.23;;;3.63;;
5961;SDS011;3007;50.770;0.250;2024-01-06T03:54:17;7.13;;;4.07;;
5961;SDS011;3007;50.770;0.250;2024-01-06T03:56:44;4.53;;;3.60;;
5961;SDS011;3007;50.770;0.250;2024-01-06T03:59:11;5.83;;;4.03;;
5961;SDS011;3007;50.770;0.250;2024-01-06T04:01:37;5.47;;;3.53;;
5961;SDS011;3007;50.770;0.250;2024-01-06T04:04:07;5.90;;;3.70;;
5961;SDS011;3007;50.770;0.250;2024-01-06T04:06:35;6.87;;;3.80;;
5961;SDS011;3007;50.770;0.250;2024-01-06T04:09:02;4.83;;;3.37;;
5961;SDS011;3007;50.770;0.250;2024-01-06T04:11:30;5.47;;;3.30;;
5961;SDS011;3007;50.770;0.250;2024-01-06T04:13:57;6.80;;;3.70;;
5961;SDS011;3007;50.770;0.250;2024-01-06T04:16:25;5.47;;;2.80;;
5961;SDS011;3007;50.770;0.250;2024-01-06T04:18:52;5.83;;;2.90;;
5961;SDS011;3007;50.770;0.250;2024-01-06T04:21:19;5.03;;;2.80;;
5961;SDS011;3007;50.770;0.250;2024-01-06T04:23:47;7.97;;;2.87;;
5961;SDS011;3007;50.770;0.250;2024-01-06T04:26:13;5.93;;;3.00;;
5961;SDS011;3007;50.770;0.250;2024-01-06T04:28:40;5.00;;;3.30;;
5961;SDS011;3007;50.770;0.250;2024-01-06T04:31:07;4.00;;;3.13;;
5961;SDS011;3007;50.770;0.250;2024-01-06T04:33:34;8.53;;;3.77;;
5961;SDS011;3007;50.770;0.250;2024-01-06T04:36:02;9.67;;;3.20;;
5961;SDS011;3007;50.770;0.250;2024-01-06T04:38:29;8.07;;;3.80;;
5961;SDS011;3007;50.770;0.250;2024-01-06T04:40:57;5.20;;;3.90;;
5961;SDS011;3007;50.770;0.250;2024-01-06T04:43:24;4.77;;;3.30;;
5961;SDS011;3007;50.770;0.250;2024-01-06T04:45:50;7.70;;;2.97;;
5961;SDS011;3007;50.770;0.250;2024-01-06T04:48:17;5.47;;;3.50;;
5961;SDS011;3007;50.770;0.250;2024-01-06T04:50:44;5.87;;;3.20;;
5961;SDS011;3007;50.770;0.250;2024-01-06T04:53:11;5.73;;;3.20;;
5961;SDS011;3007;50.770;0.250;2024-01-06T04:55:38;6.47;;;3.33;;
5961;SDS011;3007;50.770;0.250;2024-01-06T04:58:06;4.40;;;3.40;;
5961;SDS011;3007;50.770;0.250;2024-01-06T05:00:33;7.53;;;3.00;;
5961;SDS011;3007;50.770;0.250;2024-01-06T05:03:01;5.97;;;3.20;;
5961;SDS011;3007;50.770;0.250;2024-01-06T05:05:28;7.63;;;3.50;;
5961;SDS011;3007;50.770;0.250;2024-01-06T05:07:54;7.80;;;4.10;;
5961;SDS011;3007;50.770;0.250;2024-01-06T05:10:21;6.07;;;3.40;;
5961;SDS011;3007;50.770;0.250;2024-01-06T05:12:48;10.10;;;4.43;;
5961;SDS011;3007;50.770;0.250;2024-01-06T05:15:16;6.20;;;3.67;;
5961;SDS011;3007;50.770;0.250;2024-01-06T05:17:43;4.27;;;3.10;;
5961;SDS011;3007;50.770;0.250;2024-01-06T05:20:10;7.27;;;3.53;;
5961;SDS011;3007;50.770;0.250;2024-01-06T05:22:37;5.93;;;3.30;;
5961;SDS011;3007;50.770;0.250;2024-01-06T05:25:04;7.17;;;4.13;;
5961;SDS011;3007;50.770;0.250;2024-01-06T05:27:31;5.97;;;3.83;;
5961;SDS011;3007;50.770;0.250;2024-01-06T05:29:57;6.87;;;3.50;;
5961;SDS011;3007;50.770;0.250;2024-01-06T05:32:26;11.17;;;4.10;;
5961;SDS011;3007;50.770;0.250;2024-01-06T05:34:52;6.10;;;3.63;;
5961;SDS011;3007;50.770;0.250;2024-01-06T05:37:19;9.07;;;3.90;;
5961;SDS011;3007;50.770;0.250;2024-01-06T05:39:46;6.40;;;4.53;;
5961;SDS011;3007;50.770;0.250;2024-01-06T05:42:13;6.87;;;4.47;;
5961;SDS011;3007;50.770;0.250;2024-01-06T05:44:40;7.93;;;4.90;;
5961;SDS011;3007;50.770;0.250;2024-01-06T05:47:07;7.33;;;3.93;;
5961;SDS011;3007;50.770;0.250;2024-01-06T05:49:35;8.03;;;3.67;;
5961;SDS011;3007;50.770;0.250;2024-01-06T05:52:02;6.40;;;4.10;;
5961;SDS011;3007;50.770;0.250;2024-01-06T05:54:30;8.23;;;4.37;;
5961;SDS011;3007;50.770;0.250;2024-01-06T05:56:57;5.23;;;4.10;;
5961;SDS011;3007;50.770;0.250;2024-01-06T05:59:25;7.07;;;4.07;;
5961;SDS011;3007;50.770;0.250;2024-01-06T06:01:52;4.57;;;3.30;;
5961;SDS011;3007;50.770;0.250;2024-01-06T06:04:19;11.27;;;4.07;;
5961;SDS011;3007;50.770;0.250;2024-01-06T06:06:47;4.83;;;3.50;;
5961;SDS011;3007;50.770;0.250;2024-01-06T06:09:14;7.03;;;3.67;;
5961;SDS011;3007;50.770;0.250;2024-01-06T06:11:40;5.43;;;3.43;;
5961;SDS011;3007;50.770;0.250;2024-01-06T06:14:08;4.60;;;3.60;;
5961;SDS011;3007;50.770;0.250;2024-01-06T06:16:34;7.17;;;3.80;;
5961;SDS011;3007;50.770;0.250;2024-01-06T06:19:02;4.23;;;3.80;;
5961;SDS011;3007;50.770;0.250;2024-01-06T06:21:28;6.00;;;3.50;;
5961;SDS011;3007;50.770;0.250;2024-01-06T06:23:56;6.33;;;3.53;;
5961;SDS011;3007;50.770;0.250;2024-01-06T06:26:23;7.90;;;3.43;;
5961;SDS011;3007;50.770;0.250;2024-01-06T06:28:50;5.43;;;3.37;;
5961;SDS011;3007;50.770;0.250;2024-01-06T06:31:17;4.53;;;3.13;;
5961;SDS011;3007;50.770;0.250;2024-01-06T06:33:44;8.17;;;2.93;;
5961;SDS011;3007;50.770;0.250;2024-01-06T06:36:10;6.43;;;3.10;;
5961;SDS011;3007;50.770;0.250;2024-01-06T06:38:37;6.47;;;3.20;;
5961;SDS011;3007;50.770;0.250;2024-01-06T06:41:05;5.73;;;3.20;;
5961;SDS011;3007;50.770;0.250;2024-01-06T06:43:32;3.33;;;2.67;;
5961;SDS011;3007;50.770;0.250;2024-01-06T06:45:59;6.23;;;3.00;;
5961;SDS011;3007;50.770;0.250;2024-01-06T06:48:28;4.70;;;2.53;;
5961;SDS011;3007;50.770;0.250;2024-01-06T06:50:55;6.10;;;2.57;;
5961;SDS011;3007;50.770;0.250;2024-01-06T06:53:22;5.13;;;2.80;;
5961;SDS011;3007;50.770;0.250;2024-01-06T06:55:49;3.17;;;2.57;;
5961;SDS011;3007;50.770;0.250;2024-01-06T06:58:17;4.80;;;2.60;;
5961;SDS011;3007;50.770;0.250;2024-01-06T07:00:44;5.63;;;2.80;;
5961;SDS011;3007;50.770;0.250;2024-01-06T07:03:11;4.50;;;2.30;;
5961;SDS011;3007;50.770;0.250;2024-01-06T07:05:39;5.43;;;2.77;;
5961;SDS011;3007;50.770;0.250;2024-01-06T07:08:06;8.23;;;2.43;;
5961;SDS011;3007;50.770;0.250;2024-01-06T07:10:32;4.80;;;2.80;;
5961;SDS011;3007;50.770;0.250;2024-01-06T07:12:59;6.07;;;3.63;;
5961;SDS011;3007;50.770;0.250;2024-01-06T07:15:27;7.97;;;3.07;;
5961;SDS011;3007;50.770;0.250;2024-01-06T07:17:54;5.73;;;3.43;;
5961;SDS011;3007;50.770;0.250;2024-01-06T07:20:21;9.23;;;3.07;;
5961;SDS011;3007;50.770;0.250;2024-01-06T07:22:48;3.70;;;2.97;;
5961;SDS011;3007;50.770;0.250;2024-01-06T07:25:15;7.13;;;3.67;;
5961;SDS011;3007;50.770;0.250;2024-01-06T07:27:41;6.10;;;2.73;;
5961;SDS011;3007;50.770;0.250;2024-01-06T07:30:08;8.00;;;3.50;;
5961;SDS011;3007;50.770;0.250;2024-01-06T07:32:37;3.30;;;2.50;;
5961;SDS011;3007;50.770;0.250;2024-01-06T07:35:04;6.03;;;2.87;;
5961;SDS011;3007;50.770;0.250;2024-01-06T07:37:31;10.80;;;3.00;;
5961;SDS011;3007;50.770;0.250;2024-01-06T07:39:58;5.53;;;2.67;;
5961;SDS011;3007;50.770;0.250;2024-01-06T07:42:25;5.60;;;2.30;;
5961;SDS011;3007;50.770;0.250;2024-01-06T07:44:52;3.67;;;2.10;;
5961;SDS011;3007;50.770;0.250;2024-01-06T07:47:19;4.70;;;2.20;;
5961;SDS011;3007;50.770;0.250;2024-01-06T07:49:47;2.40;;;2.03;;
5961;SDS011;3007;50.770;0.250;2024-01-06T07:52:13;7.60;;;2.43;;
5961;SDS011;3007;50.770;0.250;2024-01-06T07:54:39;5.47;;;2.43;;
5961;SDS011;3007;50.770;0.250;2024-01-06T07:57:06;4.03;;;2.53;;
5961;SDS011;3007;50.770;0.250;2024-01-06T07:59:33;7.77;;;3.07;;
5961;SDS011;3007;50.770;0.250;2024-01-06T08:02:00;4.73;;;3.40;;
5961;SDS011;3007;50.770;0.250;2024-01-06T08:04:27;6.80;;;2.83;;
5961;SDS011;3007;50.770;0.250;2024-01-06T08:06:55;5.40;;;3.77;;
5961;SDS011;3007;50.770;0.250;2024-01-06T08:09:21;7.60;;;3.73;;
5961;SDS011;3007;50.770;0.250;2024-01-06T08:11:49;7.43;;;2.90;;
5961;SDS011;3007;50.770;0.250;2024-01-06T08:14:16;4.93;;;2.73;;
5961;SDS011;3007;50.770;0.250;2024-01-06T08:16:46;3.87;;;2.47;;
5961;SDS011;3007;50.770;0.250;2024-01-06T08:19:12;3.90;;;2.10;;
5961;SDS011;3007;50.770;0.250;2024-01-06T08:21:39;9.17;;;2.73;;
5961;SDS011;3007;50.770;0.250;2024-01-06T08:24:07;4.20;;;2.90;;
5961;SDS011;3007;50.770;0.250;2024-01-06T08:26:34;7.00;;;2.63;;
5961;SDS011;3007;50.770;0.250;2024-01-06T08:29:01;3.97;;;2.30;;
5961;SDS011;3007;50.770;0.250;2024-01-06T08:31:28;3.77;;;2.23;;
5961;SDS011;3007;50.770;0.250;2024-01-06T08:33:55;2.30;;;2.07;;
5961;SDS011;3007;50.770;0.250;2024-01-06T08:36:21;4.40;;;2.23;;
5961;SDS011;3007;50.770;0.250;2024-01-06T08:38:48;3.67;;;1.67;;
5961;SDS011;3007;50.770;0.250;2024-01-06T08:41:16;5.13;;;1.57;;
5961;SDS011;3007;50.770;0.250;2024-01-06T08:43:43;3.53;;;1.80;;
5961;SDS011;3007;50.770;0.250;2024-01-06T08:46:10;2.23;;;1.50;;
5961;SDS011;3007;50.770;0.250;2024-01-06T08:48:37;5.57;;;2.10;;
5961;SDS011;3007;50.770;0.250;2024-01-06T08:51:04;1.93;;;1.27;;
5961;SDS011;3007;50.770;0.250;2024-01-06T08:53:31;4.10;;;1.50;;
5961;SDS011;3007;50.770;0.250;2024-01-06T08:55:57;2.93;;;1.20;;
5961;SDS011;3007;50.770;0.250;2024-01-06T08:58:25;1.80;;;1.40;;
5961;SDS011;3007;50.770;0.250;2024-01-06T09:00:52;1.97;;;1.27;;
5961;SDS011;3007;50.770;0.250;2024-01-06T09:03:19;5.07;;;1.50;;
5961;SDS011;3007;50.770;0.250;2024-01-06T09:05:50;3.90;;;2.00;;
5961;SDS011;3007;50.770;0.250;2024-01-06T09:08:17;5.47;;;2.10;;
5961;SDS011;3007;50.770;0.250;2024-01-06T09:10:44;6.93;;;2.20;;
5961;SDS011;3007;50.770;0.250;2024-01-06T09:13:11;4.73;;;1.80;;
5961;SDS011;3007;50.770;0.250;2024-01-06T09:15:39;4.77;;;1.70;;
5961;SDS011;3007;50.770;0.250;2024-01-06T09:18:07;2.87;;;1.90;;
5961;SDS011;3007;50.770;0.250;2024-01-06T09:20:34;4.13;;;1.77;;
5961;SDS011;3007;50.770;0.250;2024-01-06T09:23:01;6.27;;;1.80;;
5961;SDS011;3007;50.770;0.250;2024-01-06T09:25:28;3.10;;;1.80;;
5961;SDS011;3007;50.770;0.250;2024-01-06T09:27:55;3.30;;;1.50;;
5961;SDS011;3007;50.770;0.250;2024-01-06T09:30:23;4.47;;;1.90;;
5961;SDS011;3007;50.770;0.250;2024-01-06T09:32:52;3.03;;;1.77;;
5961;SDS011;3007;50.770;0.250;2024-01-06T09:35:19;3.27;;;1.50;;
5961;SDS011;3007;50.770;0.250;2024-01-06T09:37:46;2.20;;;1.30;;
5961;SDS011;3007;50.770;0.250;2024-01-06T09:40:14;4.27;;;1.60;;
5961;SDS011;3007;50.770;0.250;2024-01-06T09:42:47;3.77;;;1.67;;
5961;SDS011;3007;50.770;0.250;2024-01-06T09:45:14;1.80;;;1.20;;
5961;SDS011;3007;50.770;0.250;2024-01-06T09:47:41;7.47;;;1.80;;
5961;SDS011;3007;50.770;0.250;2024-01-06T09:50:10;2.30;;;1.10;;
5961;SDS011;3007;50.770;0.250;2024-01-06T09:52:39;3.60;;;1.20;;
5961;SDS011;3007;50.770;0.250;2024-01-06T09:55:08;2.60;;;1.10;;
5961;SDS011;3007;50.770;0.250;2024-01-06T09:57:37;1.27;;;1.00;;
5961;SDS011;3007;50.770;0.250;2024-01-06T10:00:04;2.47;;;1.00;;
5961;SDS011;3007;50.770;0.250;2024-01-06T10:02:35;1.60;;;0.90;;
5961;SDS011;3007;50.770;0.250;2024-01-06T10:05:01;2.07;;;1.43;;
5961;SDS011;3007;50.770;0.250;2024-01-06T10:07:30;2.10;;;0.80;;
5961;SDS011;3007;50.770;0.250;2024-01-06T10:09:57;2.50;;;1.00;;
5961;SDS011;3007;50.770;0.250;2024-01-06T10:12:25;1.37;;;1.00;;
5961;SDS011;3007;50.770;0.250;2024-01-06T10:14:53;1.30;;;0.80;;
5961;SDS011;3007;50.770;0.250;2024-01-06T10:17:20;2.43;;;0.90;;
5961;SDS011;3007;50.770;0.250;2024-01-06T10:19:47;2.47;;;0.80;;
5961;SDS011;3007;50.770;0.250;2024-01-06T10:22:15;1.00;;;0.80;;
5961;SDS011;3007;50.770;0.250;2024-01-06T10:24:44;0.63;;;0.50;;
5961;SDS011;3007;50.770;0.250;2024-01-06T10:27:11;1.00;;;0.80;;
5961;SDS011;3007;50.770;0.250;2024-01-06T10:29:38;3.10;;;0.73;;
5961;SDS011;3007;50.770;0.250;2024-01-06T10:32:05;2.73;;;0.67;;
5961;SDS011;3007;50.770;0.250;2024-01-06T10:34:32;1.27;;;0.80;;
5961;SDS011;3007;50.770;0.250;2024-01-06T10:37:02;3.67;;;0.90;;
5961;SDS011;3007;50.770;0.250;2024-01-06T10:39:30;2.00;;;1.30;;
5961;SDS011;3007;50.770;0.250;2024-01-06T10:41:59;2.53;;;0.90;;
5961;SDS011;3007;50.770;0.250;2024-01-06T10:44:28;1.23;;;1.13;;
5961;SDS011;3007;50.770;0.250;2024-01-06T10:46:57;4.63;;;0.90;;
5961;SDS011;3007;50.770;0.250;2024-01-06T10:49:25;4.27;;;0.90;;
5961;SDS011;3007;50.770;0.250;2024-01-06T10:51:55;1.37;;;0.97;;
5961;SDS011;3007;50.770;0.250;2024-01-06T10:54:24;2.00;;;0.80;;
5961;SDS011;3007;50.770;0.250;2024-01-06T10:56:56;1.83;;;1.10;;
5961;SDS011;3007;50.770;0.250;2024-01-06T10:59:26;1.23;;;0.83;;
5961;SDS011;3007;50.770;0.250;2024-01-06T11:01:56;2.73;;;1.20;;
5961;SDS011;3007;50.770;0.250;2024-01-06T11:04:25;3.07;;;1.43;;
5961;SDS011;3007;50.770;0.250;2024-01-06T11:06:52;1.33;;;1.10;;
5961;SDS011;3007;50.770;0.250;2024-01-06T11:09:21;1.77;;;0.90;;
5961;SDS011;3007;50.770;0.250;2024-01-06T11:11:52;1.70;;;0.80;;
5961;SDS011;3007;50.770;0.250;2024-01-06T11:14:21;1.83;;;0.57;;
5961;SDS011;3007;50.770;0.250;2024-01-06T11:16:50;2.03;;;0.80;;
5961;SDS011;3007;50.770;0.250;2024-01-06T11:22:18;1.27;;;0.70;;
5961;SDS011;3007;50.770;0.250;2024-01-06T11:24:47;2.57;;;1.00;;
5961;SDS011;3007;50.770;0.250;2024-01-06T11:27:18;2.73;;;1.00;;
5961;SDS011;3007;50.770;0.250;2024-01-06T11:29:45;2.17;;;0.73;;
5961;SDS011;3007;50.770;0.250;2024-01-06T11:32:17;2.17;;;1.13;;
5961;SDS011;3007;50.770;0.250;2024-01-06T11:34:51;2.07;;;0.90;;
5961;SDS011;3007;50.770;0.250;2024-01-06T11:37:23;2.73;;;1.50;;
5961;SDS011;3007;50.770;0.250;2024-01-06T11:39:50;3.57;;;1.30;;
5961;SDS011;3007;50.770;0.250;2024-01-06T11:42:18;1.67;;;0.93;;
5961;SDS011;3007;50.770;0.250;2024-01-06T11:44:49;2.77;;;0.80;;
5961;SDS011;3007;50.770;0.250;2024-01-06T11:47:18;2.47;;;1.07;;
5961;SDS011;3007;50.770;0.250;2024-01-06T11:49:48;1.40;;;0.90;;
5961;SDS011;3007;50.770;0.250;2024-01-06T11:52:22;2.40;;;1.53;;
5961;SDS011;3007;50.770;0.250;2024-01-06T11:54:50;2.47;;;1.77;;
5961;SDS011;3007;50.770;0.250;2024-01-06T11:57:18;2.93;;;1.93;;
5961;SDS011;3007;50.770;0.250;2024-01-06T11:59:46;1.80;;;1.40;;
5961;SDS011;3007;50.770;0.250;2024-01-06T12:02:16;2.53;;;1.57;;
5961;SDS011;3007;50.770;0.250;2024-01-06T12:04:47;2.67;;;1.43;;
5961;SDS011;3007;50.770;0.250;2024-01-06T12:07:16;2.93;;;1.00;;
5961;SDS011;3007;50.770;0.250;2024-01-06T12:09:43;1.83;;;1.13;;
5961;SDS011;3007;50.770;0.250;2024-01-06T12:12:10;1.80;;;0.90;;
5961;SDS011;3007;50.770;0.250;2024-01-06T12:14:40;1.43;;;0.77;;
5961;SDS011;3007;50.770;0.250;2024-01-06T12:17:07;1.43;;;1.10;;
5961;SDS011;3007;50.770;0.250;2024-01-06T12:19:36;3.30;;;1.37;;
5961;SDS011;3007;50.770;0.250;2024-01-06T12:22:04;4.13;;;1.70;;
5961;SDS011;3007;50.770;0.250;2024-01-06T12:24:32;3.10;;;1.30;;
5961;SDS011;3007;50.770;0.250;2024-01-06T12:27:00;3.07;;;1.30;;
5961;SDS011;3007;50.770;0.250;2024-01-06T12:29:27;1.87;;;0.93;;
5961;SDS011;3007;50.770;0.250;2024-01-06T12:31:55;1.50;;;1.07;;
5961;SDS011;3007;50.770;0.250;2024-01-06T12:34:22;2.80;;;1.37;;
5961;SDS011;3007;50.770;0.250;2024-01-06T12:36:52;6.07;;;1.40;;
5961;SDS011;3007;50.770;0.250;2024-01-06T12:39:23;1.77;;;1.10;;
5961;SDS011;3007;50.770;0.250;2024-01-06T12:41:54;2.13;;;1.03;;
5961;SDS011;3007;50.770;0.250;2024-01-06T12:44:21;1.70;;;0.97;;
5961;SDS011;3007;50.770;0.250;2024-01-06T12:46:48;7.47;;;1.30;;
5961;SDS011;3007;50.770;0.250;2024-01-06T12:49:15;1.27;;;0.90;;
5961;SDS011;3007;50.770;0.250;2024-01-06T12:51:42;1.03;;;0.80;;
5961;SDS011;3007;50.770;0.250;2024-01-06T12:54:10;1.13;;;0.80;;
5961;SDS011;3007;50.770;0.250;2024-01-06T12:56:37;1.47;;;0.97;;
5961;SDS011;3007;50.770;0.250;2024-01-06T12:59:04;1.67;;;0.80;;
5961;SDS011;3007;50.770;0.250;2024-01-06T13:01:31;1.13;;;0.80;;
5961;SDS011;3007;50.770;0.250;2024-01-06T13:03:58;1.97;;;1.30;;
5961;SDS011;3007;50.770;0.250;2024-01-06T13:06:27;2.10;;;1.00;;
5961;SDS011;3007;50.770;0.250;2024-01-06T13:08:55;1.87;;;1.20;;
5961;SDS011;3007;50.770;0.250;2024-01-06T13:11:25;1.97;;;1.00;;
5961;SDS011;3007;50.770;0.250;2024-01-06T13:13:53;2.93;;;1.23;;
5961;SDS011;3007;50.770;0.250;2024-01-06T13:16:20;3.40;;;2.23;;
5961;SDS011;3007;50.770;0.250;2024-01-06T13:18:47;2.90;;;2.27;;
5961;SDS011;3007;50.770;0.250;2024-01-06T13:21:14;2.93;;;1.97;;
5961;SDS011;3007;50.770;0.250;2024-01-06T13:23:40;3.23;;;2.00;;
5961;SDS011;3007;50.770;0.250;2024-01-06T13:26:11;1.57;;;1.30;;
5961;SDS011;3007;50.770;0.250;2024-01-06T13:28:39;2.93;;;1.87;;
5961;SDS011;3007;50.770;0.250;2024-01-06T13:31:06;3.00;;;1.57;;
5961;SDS011;3007;50.770;0.250;2024-01-06T13:33:33;3.70;;;2.00;;
5961;SDS011;3007;50.770;0.250;2024-01-06T13:36:03;4.63;;;1.70;;
5961;SDS011;3007;50.770;0.250;2024-01-06T13:38:31;1.83;;;1.50;;
5961;SDS011;3007;50.770;0.250;2024-01-06T13:41:00;1.97;;;1.30;;
5961;SDS011;3007;50.770;0.250;2024-01-06T13:43:28;2.47;;;1.57;;
5961;SDS011;3007;50.770;0.250;2024-01-06T13:45:57;2.50;;;1.40;;
5961;SDS011;3007;50.770;0.250;2024-01-06T13:48:24;5.57;;;1.80;;
5961;SDS011;3007;50.770;0.250;2024-01-06T13:50:51;1.80;;;1.40;;
5961;SDS011;3007;50.770;0.250;2024-01-06T13:53:18;2.50;;;1.40;;
5961;SDS011;3007;50.770;0.250;2024-01-06T13:55:45;4.30;;;2.00;;
5961;SDS011;3007;50.770;0.250;2024-01-06T13:58:12;2.07;;;1.50;;
5961;SDS011;3007;50.770;0.250;2024-01-06T14:00:39;4.80;;;2.37;;
5961;SDS011;3007;50.770;0.250;2024-01-06T14:03:07;5.67;;;3.33;;
5961;SDS011;3007;50.770;0.250;2024-01-06T14:05:36;6.60;;;4.30;;
5961;SDS011;3007;50.770;0.250;2024-01-06T14:08:05;10.63;;;4.67;;
5961;SDS011;3007;50.770;0.250;2024-01-06T14:10:35;8.77;;;5.10;;
5961;SDS011;3007;50.770;0.250;2024-01-06T14:13:03;2.90;;;2.30;;
5961;SDS011;3007;50.770;0.250;2024-01-06T14:15:30;2.63;;;2.03;;
5961;SDS011;3007;50.770;0.250;2024-01-06T14:17:58;2.90;;;1.60;;
5961;SDS011;3007;50.770;0.250;2024-01-06T14:20:26;2.13;;;1.37;;
5961;SDS011;3007;50.770;0.250;2024-01-06T14:22:54;4.03;;;1.33;;
5961;SDS011;3007;50.770;0.250;2024-01-06T14:25:23;1.93;;;1.30;;
5961;SDS011;3007;50.770;0.250;2024-01-06T14:27:50;4.73;;;1.33;;
5961;SDS011;3007;50.770;0.250;2024-01-06T14:30:17;1.47;;;1.10;;
5961;SDS011;3007;50.770;0.250;2024-01-06T14:32:45;2.83;;;1.67;;
5961;SDS011;3007;50.770;0.250;2024-01-06T14:35:12;2.60;;;1.40;;
5961;SDS011;3007;50.770;0.250;2024-01-06T14:37:40;2.33;;;1.53;;
5961;SDS011;3007;50.770;0.250;2024-01-06T14:40:09;2.77;;;1.80;;
5961;SDS011;3007;50.770;0.250;2024-01-06T14:42:37;3.13;;;2.10;;
5961;SDS011;3007;50.770;0.250;2024-01-06T14:45:04;2.67;;;1.80;;
5961;SDS011;3007;50.770;0.250;2024-01-06T14:47:33;3.87;;;1.97;;
5961;SDS011;3007;50.770;0.250;2024-01-06T14:50:00;4.13;;;2.30;;
5961;SDS011;3007;50.770;0.250;2024-01-06T14:52:27;4.63;;;2.17;;
5961;SDS011;3007;50.770;0.250;2024-01-06T14:54:55;3.37;;;2.03;;
5961;SDS011;3007;50.770;0.250;2024-01-06T14:57:23;3.70;;;2.23;;
5961;SDS011;3007;50.770;0.250;2024-01-06T14:59:50;5.70;;;2.90;;
5961;SDS011;3007;50.770;0.250;2024-01-06T15:02:17;4.00;;;2.47;;
5961;SDS011;3007;50.770;0.250;2024-01-06T15:04:45;3.20;;;2.47;;
5961;SDS011;3007;50.770;0.250;2024-01-06T15:07:12;6.20;;;3.87;;
5961;SDS011;3007;50.770;0.250;2024-01-06T15:09:38;7.43;;;3.50;;
5961;SDS011;3007;50.770;0.250;2024-01-06T15:12:07;5.67;;;3.27;;
5961;SDS011;3007;50.770;0.250;2024-01-06T15:14:35;5.30;;;3.33;;
5961;SDS011;3007;50.770;0.250;2024-01-06T15:17:04;5.53;;;2.50;;
5961;SDS011;3007;50.770;0.250;2024-01-06T15:19:32;7.37;;;3.93;;